Newaygo, MI

2:12 PM EDT on August 04, 2015 (GMT -0400)
APRSWXNET | | Change Station
CLOSE
Current Station
Personal Weather Station
Location: Newaygo, MI
Elevation: 665 ft
Nearby Weather Stations

Elev 665 ft 43.40 °N, 85.80 °W | Updated 23 minutes ago

Overcast
Overcast
76 °F
Feels Like 78 °F
N
3
Wind Variable Wind from North
Gusts 0.0 mph

Today
High -- | Low -- °F
--% Chance of Precip.
Yesterday
High -- | Low -- °F
Precip. -- in
6:35 AM 9:01 PM
Waning Gibbous, 75% visible
Pressure 29.93 in
Visibility 10.0 miles
Clouds Scattered Clouds 4800 ft
Scattered Clouds 6000 ft
Mostly Cloudy 8000 ft
Heat Index 78 °F
Dew Point 59 °F
Humidity 56%
Rainfall in
Snow Depth Not available.
UV 6 out of 12
Pollen 7.10 out of 12
Air Quality Not available.
Flu Activity Not available.
METAR KFFX 041753Z AUTO 27012G18KT 10SM SCT048 SCT060 BKN080 25/11 A2993 RMK AO2 T02470109

More Conditions Fewer Conditions

Pressure 29.93 in
Visibility 10.0 miles
Clouds Scattered Clouds 4800 ft
Scattered Clouds 6000 ft
Mostly Cloudy 8000 ft
Heat Index 78 °F
Dew Point 59 °F
Humidity 56%
Rainfall in
Snow Depth Not available.
UV 6 out of 12
Pollen 7.10 out of 12
Air Quality Not available.
Flu Activity Not available.
METAR KFFX 041753Z AUTO 27012G18KT 10SM SCT048 SCT060 BKN080 25/11 A2993 RMK AO2 T02470109

More Conditions Fewer Conditions

10-Day Weather Forecast

×

Almanac

Astronomy

Aug. 04, 2015 Rise Set
Actual Time
Civil Twilight
Nautical Twilight
Astronomical Twilight
Moon
Length of Visible Light
Length of Day
Tomorrow will be .
, % of the Moon is Illuminated

Today's Extremes

State Highs State Lows

Community

WunderPhotos

Upload Photos

1,843,935 photos uploaded!

WunderBlogs® & News

Nearby

Air Quality

  Air Quality AQ Index Pollutant
Not available.

Snow Depth

Station Depth Elevation

Earthquake Activity

City Distance Mag. Time & Date
Minimum magnitude displayed is 2.5.

Coastal Water Temperatures

Place Temperature

Stations

Nearby Weather Stations

Station Location Temp. Windchill Dew Point Humidity Wind Precip. Elev Updated Type